Wolvega, Netherlands
Current Conditions -  °F | °C
As of 5:25 AM on Friday 19 Dec 2014 (Local Time) from EHLW Reporting Station
Light Rain Light Rain  
Wind Chill: 52°   Ceiling: 600
Heat Index: 52°   Visibility: 3mi
Dew Point: 50°   Wind: 22mph
Humidity: 94%   Direction: 240°WSW
Pressure: 29.62"   Gusts: 33mph
Location:  52.88°N, 6°E
Report Text: EHLW 190425Z AUTO 24019G29KT 4800 -RA FEW005 BKN006 BKN00811/10 Q1003 RERA REDZYLO
Loading
Personal Weather Stations






























Interactive Weather Map New forecast layout! Learn more

10-Day Weather Forecast

Advertisements
Track Severe Weather on mobile